sensor_id;sensor_type;location;lat;lon;timestamp;pressure;altitude;pressure_sealevel;temperature
78369;BMP280;71113;43.092;-89.268;2024-01-30T00:02:11;97889.28;;;19.89
78369;BMP280;71113;43.092;-89.268;2024-01-30T00:04:37;97904.84;;;19.90
78369;BMP280;71113;43.092;-89.268;2024-01-30T00:07:03;97900.34;;;19.91
78369;BMP280;71113;43.092;-89.268;2024-01-30T00:09:28;97897.31;;;19.92
78369;BMP280;71113;43.092;-89.268;2024-01-30T00:11:54;97901.09;;;19.91
78369;BMP280;71113;43.092;-89.268;2024-01-30T00:14:20;97895.03;;;19.91
78369;BMP280;71113;43.092;-89.268;2024-01-30T00:16:46;97889.75;;;19.91
78369;BMP280;71113;43.092;-89.268;2024-01-30T00:19:12;97889.28;;;19.89
78369;BMP280;71113;43.092;-89.268;2024-01-30T00:21:38;97884.34;;;19.87
78369;BMP280;71113;43.092;-89.268;2024-01-30T00:24:04;97901.63;;;19.85
78369;BMP280;71113;43.092;-89.268;2024-01-30T00:26:30;97909.56;;;19.85
78369;BMP280;71113;43.092;-89.268;2024-01-30T00:28:56;97904.75;;;19.87
78369;BMP280;71113;43.092;-89.268;2024-01-30T00:31:45;97899.47;;;19.87
78369;BMP280;71113;43.092;-89.268;2024-01-30T00:34:11;97907.50;;;19.90
78369;BMP280;71113;43.092;-89.268;2024-01-30T00:36:37;97919.53;;;19.88
78369;BMP280;71113;43.092;-89.268;2024-01-30T00:39:03;97914.97;;;19.88
78369;BMP280;71113;43.092;-89.268;2024-01-30T00:41:32;97903.28;;;19.89
78369;BMP280;71113;43.092;-89.268;2024-01-30T00:43:58;97895.34;;;19.89
78369;BMP280;71113;43.092;-89.268;2024-01-30T00:46:24;97896.91;;;19.90
78369;BMP280;71113;43.092;-89.268;2024-01-30T00:48:50;97888.19;;;19.90
78369;BMP280;71113;43.092;-89.268;2024-01-30T00:51:15;97888.97;;;19.90
78369;BMP280;71113;43.092;-89.268;2024-01-30T00:53:41;97893.16;;;19.91
78369;BMP280;71113;43.092;-89.268;2024-01-30T00:56:07;97891.63;;;19.90
78369;BMP280;71113;43.092;-89.268;2024-01-30T00:58:34;97893.16;;;19.91
78369;BMP280;71113;43.092;-89.268;2024-01-30T01:01:00;97895.03;;;19.91
78369;BMP280;71113;43.092;-89.268;2024-01-30T01:03:26;97878.06;;;19.92
78369;BMP280;71113;43.092;-89.268;2024-01-30T01:05:52;97884.84;;;19.93
78369;BMP280;71113;43.092;-89.268;2024-01-30T01:08:18;97887.50;;;19.93
78369;BMP280;71113;43.092;-89.268;2024-01-30T01:10:44;97885.66;;;19.93
78369;BMP280;71113;43.092;-89.268;2024-01-30T01:13:10;97883.78;;;19.94
78369;BMP280;71113;43.092;-89.268;2024-01-30T01:15:36;97886.44;;;19.94
78369;BMP280;71113;43.092;-89.268;2024-01-30T01:18:03;97880.78;;;19.95
78369;BMP280;71113;43.092;-89.268;2024-01-30T01:20:29;97875.50;;;19.95
78369;BMP280;71113;43.092;-89.268;2024-01-30T01:22:54;97874.06;;;19.98
78369;BMP280;71113;43.092;-89.268;2024-01-30T01:25:21;97872.19;;;19.98
78369;BMP280;71113;43.092;-89.268;2024-01-30T01:27:47;97866.56;;;20.00
78369;BMP280;71113;43.092;-89.268;2024-01-30T01:30:17;97862.03;;;20.00
78369;BMP280;71113;43.092;-89.268;2024-01-30T01:32:50;97861.25;;;20.00
78369;BMP280;71113;43.092;-89.268;2024-01-30T01:35:24;97861.34;;;20.03
78369;BMP280;71113;43.092;-89.268;2024-01-30T01:37:53;97875.03;;;20.05
78369;BMP280;71113;43.092;-89.268;2024-01-30T01:40:27;97861.47;;;20.07
78369;BMP280;71113;43.092;-89.268;2024-01-30T01:42:54;97850.53;;;20.08
78369;BMP280;71113;43.092;-89.268;2024-01-30T01:45:21;97854.75;;;20.09
78369;BMP280;71113;43.092;-89.268;2024-01-30T01:47:50;97853.59;;;20.10
78369;BMP280;71113;43.092;-89.268;2024-01-30T01:50:18;97842.69;;;20.12
78369;BMP280;71113;43.092;-89.268;2024-01-30T01:52:47;97849.84;;;20.11
78369;BMP280;71113;43.092;-89.268;2024-01-30T01:55:13;97838.19;;;20.13
78369;BMP280;71113;43.092;-89.268;2024-01-30T01:57:41;97844.25;;;20.13
78369;BMP280;71113;43.092;-89.268;2024-01-30T02:00:08;97826.78;;;20.12
78369;BMP280;71113;43.092;-89.268;2024-01-30T02:02:36;97834.44;;;20.14
78369;BMP280;71113;43.092;-89.268;2024-01-30T02:05:03;97827.59;;;20.13
78369;BMP280;71113;43.092;-89.268;2024-01-30T02:07:29;97833.66;;;20.13
78369;BMP280;71113;43.092;-89.268;2024-01-30T02:09:55;97832.09;;;20.12
78369;BMP280;71113;43.092;-89.268;2024-01-30T02:12:21;97830.56;;;20.11
78369;BMP280;71113;43.092;-89.268;2024-01-30T02:14:48;97842.69;;;20.12
78369;BMP280;71113;43.092;-89.268;2024-01-30T02:17:15;97842.69;;;20.12
78369;BMP280;71113;43.092;-89.268;2024-01-30T02:19:42;97840.84;;;20.13
78369;BMP280;71113;43.092;-89.268;2024-01-30T02:22:09;97841.59;;;20.13
78369;BMP280;71113;43.092;-89.268;2024-01-30T02:24:35;97842.69;;;20.12
78369;BMP280;71113;43.092;-89.268;2024-01-30T02:27:01;97843.47;;;20.13
78369;BMP280;71113;43.092;-89.268;2024-01-30T02:29:27;97846.13;;;20.13
78369;BMP280;71113;43.092;-89.268;2024-01-30T02:31:53;97833.66;;;20.13
78369;BMP280;71113;43.092;-89.268;2024-01-30T02:34:19;97834.44;;;20.14
78369;BMP280;71113;43.092;-89.268;2024-01-30T02:36:45;97823.38;;;20.11
78369;BMP280;71113;43.092;-89.268;2024-01-30T02:39:12;97826.50;;;20.14
78369;BMP280;71113;43.092;-89.268;2024-01-30T02:41:38;97821.94;;;20.14
78369;BMP280;71113;43.092;-89.268;2024-01-30T02:44:04;97811.47;;;20.18
78369;BMP280;71113;43.092;-89.268;2024-01-30T02:46:30;97807.34;;;20.20
78369;BMP280;71113;43.092;-89.268;2024-01-30T02:48:56;97803.38;;;20.26
78369;BMP280;71113;43.092;-89.268;2024-01-30T02:51:24;97809.19;;;20.32
78369;BMP280;71113;43.092;-89.268;2024-01-30T02:53:50;97803.31;;;20.38
78369;BMP280;71113;43.092;-89.268;2024-01-30T02:56:16;97800.84;;;20.46
78369;BMP280;71113;43.092;-89.268;2024-01-30T02:58:42;97807.44;;;20.52
78369;BMP280;71113;43.092;-89.268;2024-01-30T03:01:08;97796.94;;;20.55
78369;BMP280;71113;43.092;-89.268;2024-01-30T03:03:34;97786.81;;;20.61
78369;BMP280;71113;43.092;-89.268;2024-01-30T03:06:01;97783.31;;;20.57
78369;BMP280;71113;43.092;-89.268;2024-01-30T03:08:28;97779.47;;;20.54
78369;BMP280;71113;43.092;-89.268;2024-01-30T03:10:54;97774.50;;;20.53
78369;BMP280;71113;43.092;-89.268;2024-01-30T03:13:21;97773.00;;;20.52
78369;BMP280;71113;43.092;-89.268;2024-01-30T03:15:48;97776.31;;;20.49
78369;BMP280;71113;43.092;-89.268;2024-01-30T03:18:14;97767.94;;;20.47
78369;BMP280;71113;43.092;-89.268;2024-01-30T03:20:40;97766.38;;;20.46
78369;BMP280;71113;43.092;-89.268;2024-01-30T03:23:08;97766.00;;;20.43
78369;BMP280;71113;43.092;-89.268;2024-01-30T03:25:33;97763.66;;;20.42
78369;BMP280;71113;43.092;-89.268;2024-01-30T03:28:00;97767.75;;;20.39
78369;BMP280;71113;43.092;-89.268;2024-01-30T03:30:26;97756.72;;;20.37
78369;BMP280;71113;43.092;-89.268;2024-01-30T03:32:52;97758.91;;;20.35
78369;BMP280;71113;43.092;-89.268;2024-01-30T03:35:19;97764.59;;;20.34
78369;BMP280;71113;43.092;-89.268;2024-01-30T03:37:45;97761.50;;;20.32
78369;BMP280;71113;43.092;-89.268;2024-01-30T03:40:11;97761.72;;;20.27
78369;BMP280;71113;43.092;-89.268;2024-01-30T03:42:37;97755.69;;;20.26
78369;BMP280;71113;43.092;-89.268;2024-01-30T03:45:03;97759.00;;;20.23
78369;BMP280;71113;43.092;-89.268;2024-01-30T03:47:30;97748.31;;;20.20
78369;BMP280;71113;43.092;-89.268;2024-01-30T03:49:56;97753.84;;;20.15
78369;BMP280;71113;43.092;-89.268;2024-01-30T03:52:21;97748.16;;;20.13
78369;BMP280;71113;43.092;-89.268;2024-01-30T03:54:47;97752.22;;;20.10
78369;BMP280;71113;43.092;-89.268;2024-01-30T03:57:13;97748.06;;;20.09
78369;BMP280;71113;43.092;-89.268;2024-01-30T03:59:42;97755.88;;;20.05
78369;BMP280;71113;43.092;-89.268;2024-01-30T04:02:09;97756.91;;;20.01
78369;BMP280;71113;43.092;-89.268;2024-01-30T04:04:35;97748.06;;;19.97
78369;BMP280;71113;43.092;-89.268;2024-01-30T04:07:01;97746.22;;;19.97
78369;BMP280;71113;43.092;-89.268;2024-01-30T04:09:27;97737.06;;;19.95
78369;BMP280;71113;43.092;-89.268;2024-01-30T04:11:54;97735.84;;;19.92
78369;BMP280;71113;43.092;-89.268;2024-01-30T04:14:20;97725.88;;;19.86
78369;BMP280;71113;43.092;-89.268;2024-01-30T04:16:47;97726.63;;;19.86
78369;BMP280;71113;43.092;-89.268;2024-01-30T04:19:13;97730.25;;;19.81
78369;BMP280;71113;43.092;-89.268;2024-01-30T04:21:39;97719.69;;;19.81
78369;BMP280;71113;43.092;-89.268;2024-01-30T04:24:05;97718.03;;;19.77
78369;BMP280;71113;43.092;-89.268;2024-01-30T04:26:31;97708.94;;;19.74
78369;BMP280;71113;43.092;-89.268;2024-01-30T04:28:57;97713.00;;;19.72
78369;BMP280;71113;43.092;-89.268;2024-01-30T04:31:23;97705.28;;;19.67
78369;BMP280;71113;43.092;-89.268;2024-01-30T04:33:49;97705.19;;;19.63
78369;BMP280;71113;43.092;-89.268;2024-01-30T04:36:15;97705.19;;;19.63
78369;BMP280;71113;43.092;-89.268;2024-01-30T04:38:41;97705.09;;;19.60
78369;BMP280;71113;43.092;-89.268;2024-01-30T04:41:07;97705.00;;;19.56
78369;BMP280;71113;43.092;-89.268;2024-01-30T04:43:33;97698.19;;;19.55
78369;BMP280;71113;43.092;-89.268;2024-01-30T04:45:59;97694.19;;;19.49
78369;BMP280;71113;43.092;-89.268;2024-01-30T04:48:25;97688.91;;;19.49
78369;BMP280;71113;43.092;-89.268;2024-01-30T04:50:51;97680.56;;;19.47
78369;BMP280;71113;43.092;-89.268;2024-01-30T04:53:17;97681.56;;;19.42
78369;BMP280;71113;43.092;-89.268;2024-01-30T04:55:44;97678.13;;;19.42
78369;BMP280;71113;43.092;-89.268;2024-01-30T04:58:10;97672.75;;;19.38
78369;BMP280;71113;43.092;-89.268;2024-01-30T05:00:36;97681.78;;;19.37
78369;BMP280;71113;43.092;-89.268;2024-01-30T05:03:02;97680.56;;;19.35
78369;BMP280;71113;43.092;-89.268;2024-01-30T05:05:28;97678.63;;;19.32
78369;BMP280;71113;43.092;-89.268;2024-01-30T05:07:54;97675.97;;;19.32
78369;BMP280;71113;43.092;-89.268;2024-01-30T05:10:19;97683.00;;;19.28
78369;BMP280;71113;43.092;-89.268;2024-01-30T05:12:45;97685.34;;;19.29
78369;BMP280;71113;43.092;-89.268;2024-01-30T05:15:11;97688.22;;;19.24
78369;BMP280;71113;43.092;-89.268;2024-01-30T05:17:37;97683.25;;;19.23
78369;BMP280;71113;43.092;-89.268;2024-01-30T05:20:03;97683.91;;;19.19
78369;BMP280;71113;43.092;-89.268;2024-01-30T05:22:30;97686.13;;;19.17
78369;BMP280;71113;43.092;-89.268;2024-01-30T05:24:56;97673.56;;;19.14
78369;BMP280;71113;43.092;-89.268;2024-01-30T05:27:22;97669.81;;;19.15
78369;BMP280;71113;43.092;-89.268;2024-01-30T05:29:47;97676.53;;;19.13
78369;BMP280;71113;43.092;-89.268;2024-01-30T05:32:13;97683.28;;;19.10
78369;BMP280;71113;43.092;-89.268;2024-01-30T05:34:39;97682.41;;;19.06
78369;BMP280;71113;43.092;-89.268;2024-01-30T05:37:05;97673.69;;;19.06
78369;BMP280;71113;43.092;-89.268;2024-01-30T05:39:31;97677.00;;;19.03
78369;BMP280;71113;43.092;-89.268;2024-01-30T05:41:58;97686.34;;;19.00
78369;BMP280;71113;43.092;-89.268;2024-01-30T05:44:24;97677.66;;;19.00
78369;BMP280;71113;43.092;-89.268;2024-01-30T05:46:50;97674.59;;;18.98
78369;BMP280;71113;43.092;-89.268;2024-01-30T05:49:16;97669.19;;;18.94
78369;BMP280;71113;43.092;-89.268;2024-01-30T05:51:43;97673.72;;;18.94
78369;BMP280;71113;43.092;-89.268;2024-01-30T05:54:09;97676.66;;;18.92
78369;BMP280;71113;43.092;-89.268;2024-01-30T05:56:35;97673.59;;;18.90
78369;BMP280;71113;43.092;-89.268;2024-01-30T05:59:01;97671.28;;;18.88
78369;BMP280;71113;43.092;-89.268;2024-01-30T06:01:27;97667.75;;;18.84
78369;BMP280;71113;43.092;-89.268;2024-01-30T06:03:54;97669.63;;;18.84
78369;BMP280;71113;43.092;-89.268;2024-01-30T06:06:41;97659.69;;;18.81
78369;BMP280;71113;43.092;-89.268;2024-01-30T06:09:07;97658.94;;;18.80
78369;BMP280;71113;43.092;-89.268;2024-01-30T06:11:35;97664.56;;;18.79
78369;BMP280;71113;43.092;-89.268;2024-01-30T06:14:01;97666.34;;;18.75
78369;BMP280;71113;43.092;-89.268;2024-01-30T06:16:27;97664.47;;;18.75
78369;BMP280;71113;43.092;-89.268;2024-01-30T06:18:58;97664.47;;;18.75
78369;BMP280;71113;43.092;-89.268;2024-01-30T06:21:24;97669.28;;;18.73
78369;BMP280;71113;43.092;-89.268;2024-01-30T06:23:50;97670.75;;;18.71
78369;BMP280;71113;43.092;-89.268;2024-01-30T06:26:16;97663.03;;;18.66
78369;BMP280;71113;43.092;-89.268;2024-01-30T06:28:42;97674.03;;;18.68
78369;BMP280;71113;43.092;-89.268;2024-01-30T06:31:08;97668.31;;;18.66
78369;BMP280;71113;43.092;-89.268;2024-01-30T06:33:34;97664.13;;;18.65
78369;BMP280;71113;43.092;-89.268;2024-01-30T06:36:00;97666.00;;;18.64
78369;BMP280;71113;43.092;-89.268;2024-01-30T06:38:26;97660.25;;;18.62
78369;BMP280;71113;43.092;-89.268;2024-01-30T06:40:51;97669.28;;;18.61
78369;BMP280;71113;43.092;-89.268;2024-01-30T06:43:17;97659.72;;;18.56
78369;BMP280;71113;43.092;-89.268;2024-01-30T06:45:43;97660.81;;;18.55
78369;BMP280;71113;43.092;-89.268;2024-01-30T06:48:09;97658.97;;;18.56
78369;BMP280;71113;43.092;-89.268;2024-01-30T06:50:35;97663.34;;;18.52
78369;BMP280;71113;43.092;-89.268;2024-01-30T06:53:01;97656.84;;;18.49
78369;BMP280;71113;43.092;-89.268;2024-01-30T06:55:27;97656.84;;;18.49
78369;BMP280;71113;43.092;-89.268;2024-01-30T06:57:52;97654.53;;;18.48
78369;BMP280;71113;43.092;-89.268;2024-01-30T07:00:18;97662.44;;;18.48
78369;BMP280;71113;43.092;-89.268;2024-01-30T07:02:45;97656.72;;;18.46
78369;BMP280;71113;43.092;-89.268;2024-01-30T07:05:11;97658.16;;;18.43
78369;BMP280;71113;43.092;-89.268;2024-01-30T07:07:37;97660.34;;;18.41
78369;BMP280;71113;43.092;-89.268;2024-01-30T07:10:03;97663.00;;;18.41
78369;BMP280;71113;43.092;-89.268;2024-01-30T07:12:30;97670.47;;;18.39
78369;BMP280;71113;43.092;-89.268;2024-01-30T07:14:56;97666.28;;;18.38
78369;BMP280;71113;43.092;-89.268;2024-01-30T07:17:25;97667.50;;;18.41
78369;BMP280;71113;43.092;-89.268;2024-01-30T07:19:50;97660.56;;;18.36
78369;BMP280;71113;43.092;-89.268;2024-01-30T07:22:16;97666.97;;;18.35
78369;BMP280;71113;43.092;-89.268;2024-01-30T07:24:43;97666.53;;;18.33
78369;BMP280;71113;43.092;-89.268;2024-01-30T07:27:13;97663.41;;;18.31
78369;BMP280;71113;43.092;-89.268;2024-01-30T07:29:40;97668.69;;;18.31
78369;BMP280;71113;43.092;-89.268;2024-01-30T07:32:05;97676.94;;;18.30
78369;BMP280;71113;43.092;-89.268;2024-01-30T07:34:31;97672.00;;;18.28
78369;BMP280;71113;43.092;-89.268;2024-01-30T07:36:57;97678.38;;;18.27
78369;BMP280;71113;43.092;-89.268;2024-01-30T07:39:23;97679.47;;;18.26
78369;BMP280;71113;43.092;-89.268;2024-01-30T07:41:49;97675.28;;;18.25
78369;BMP280;71113;43.092;-89.268;2024-01-30T07:44:15;97677.47;;;18.23
78369;BMP280;71113;43.092;-89.268;2024-01-30T07:46:41;97679.03;;;18.24
78369;BMP280;71113;43.092;-89.268;2024-01-30T07:49:07;97680.78;;;18.20
78369;BMP280;71113;43.092;-89.268;2024-01-30T07:51:33;97675.50;;;18.20
78369;BMP280;71113;43.092;-89.268;2024-01-30T07:53:59;97676.56;;;18.19
78369;BMP280;71113;43.092;-89.268;2024-01-30T07:56:24;97682.19;;;18.17
78369;BMP280;71113;43.092;-89.268;2024-01-30T07:58:50;97668.22;;;18.17
78369;BMP280;71113;43.092;-89.268;2024-01-30T08:01:16;97670.41;;;18.15
78369;BMP280;71113;43.092;-89.268;2024-01-30T08:03:42;97668.88;;;18.14
78369;BMP280;71113;43.092;-89.268;2024-01-30T08:06:09;97671.06;;;18.12
78369;BMP280;71113;43.092;-89.268;2024-01-30T08:08:35;97666.88;;;18.11
78369;BMP280;71113;43.092;-89.268;2024-01-30T08:11:01;97663.81;;;18.09
78369;BMP280;71113;43.092;-89.268;2024-01-30T08:13:27;97663.47;;;18.10
78369;BMP280;71113;43.092;-89.268;2024-01-30T08:15:53;97658.84;;;18.07
78369;BMP280;71113;43.092;-89.268;2024-01-30T08:18:19;97655.75;;;18.05
78369;BMP280;71113;43.092;-89.268;2024-01-30T08:20:45;97652.34;;;18.05
78369;BMP280;71113;43.092;-89.268;2024-01-30T08:23:10;97646.75;;;18.06
78369;BMP280;71113;43.092;-89.268;2024-01-30T08:25:36;97647.72;;;18.02
78369;BMP280;71113;43.092;-89.268;2024-01-30T08:28:03;97635.97;;;17.99
78369;BMP280;71113;43.092;-89.268;2024-01-30T08:30:29;97639.69;;;17.98
78369;BMP280;71113;43.092;-89.268;2024-01-30T08:32:55;97642.34;;;17.98
78369;BMP280;71113;43.092;-89.268;2024-01-30T08:35:21;97635.53;;;17.97
78369;BMP280;71113;43.092;-89.268;2024-01-30T08:37:46;97639.59;;;17.94
78369;BMP280;71113;43.092;-89.268;2024-01-30T08:40:12;97633.53;;;17.94
78369;BMP280;71113;43.092;-89.268;2024-01-30T08:42:38;97625.91;;;17.92
78369;BMP280;71113;43.092;-89.268;2024-01-30T08:45:04;97634.16;;;17.91
78369;BMP280;71113;43.092;-89.268;2024-01-30T08:47:30;97629.66;;;17.91
78369;BMP280;71113;43.092;-89.268;2024-01-30T08:49:56;97636.03;;;17.90
78369;BMP280;71113;43.092;-89.268;2024-01-30T08:52:22;97631.13;;;17.89
78369;BMP280;71113;43.092;-89.268;2024-01-30T08:54:48;97630.31;;;17.88
78369;BMP280;71113;43.092;-89.268;2024-01-30T08:57:14;97629.53;;;17.88
78369;BMP280;71113;43.092;-89.268;2024-01-30T08:59:40;97637.00;;;17.86
78369;BMP280;71113;43.092;-89.268;2024-01-30T09:02:06;97630.97;;;17.85
78369;BMP280;71113;43.092;-89.268;2024-01-30T09:04:32;97626.34;;;17.82
78369;BMP280;71113;43.092;-89.268;2024-01-30T09:06:57;97635.03;;;17.83
78369;BMP280;71113;43.092;-89.268;2024-01-30T09:09:23;97634.56;;;17.81
78369;BMP280;71113;43.092;-89.268;2024-01-30T09:11:49;97633.78;;;17.80
78369;BMP280;71113;43.092;-89.268;2024-01-30T09:14:15;97626.53;;;17.77
78369;BMP280;71113;43.092;-89.268;2024-01-30T09:16:41;97632.59;;;17.78
78369;BMP280;71113;43.092;-89.268;2024-01-30T09:19:07;97627.63;;;17.76
78369;BMP280;71113;43.092;-89.268;2024-01-30T09:21:32;97631.03;;;17.77
78369;BMP280;71113;43.092;-89.268;2024-01-30T09:24:02;97631.72;;;17.74
78369;BMP280;71113;43.092;-89.268;2024-01-30T09:26:31;97626.72;;;17.72
78369;BMP280;71113;43.092;-89.268;2024-01-30T09:28:57;97627.81;;;17.71
78369;BMP280;71113;43.092;-89.268;2024-01-30T09:31:23;97622.56;;;17.71
78369;BMP280;71113;43.092;-89.268;2024-01-30T09:33:48;97633.44;;;17.70
78369;BMP280;71113;43.092;-89.268;2024-01-30T09:36:16;97627.38;;;17.69
78369;BMP280;71113;43.092;-89.268;2024-01-30T09:38:44;97633.75;;;17.68
78369;BMP280;71113;43.092;-89.268;2024-01-30T09:41:10;97631.44;;;17.67
78369;BMP280;71113;43.092;-89.268;2024-01-30T09:43:39;97626.50;;;17.65
78369;BMP280;71113;43.092;-89.268;2024-01-30T09:46:11;97626.50;;;17.65
78369;BMP280;71113;43.092;-89.268;2024-01-30T09:48:45;97628.34;;;17.64
78369;BMP280;71113;43.092;-89.268;2024-01-30T09:51:16;97615.50;;;17.63
78369;BMP280;71113;43.092;-89.268;2024-01-30T09:53:43;97617.66;;;17.61
78369;BMP280;71113;43.092;-89.268;2024-01-30T09:56:10;97619.56;;;17.60
78369;BMP280;71113;43.092;-89.268;2024-01-30T09:58:36;97625.56;;;17.61
78369;BMP280;71113;43.092;-89.268;2024-01-30T10:01:02;97615.69;;;17.58
78369;BMP280;71113;43.092;-89.268;2024-01-30T10:03:28;97617.25;;;17.59
78369;BMP280;71113;43.092;-89.268;2024-01-30T10:05:55;97620.19;;;17.57
78369;BMP280;71113;43.092;-89.268;2024-01-30T10:08:21;97617.88;;;17.56
78369;BMP280;71113;43.092;-89.268;2024-01-30T10:10:48;97612.47;;;17.52
78369;BMP280;71113;43.092;-89.268;2024-01-30T10:13:18;97617.44;;;17.54
78369;BMP280;71113;43.092;-89.268;2024-01-30T10:15:44;97609.84;;;17.52
78369;BMP280;71113;43.092;-89.268;2024-01-30T10:18:10;97607.19;;;17.52
78369;BMP280;71113;43.092;-89.268;2024-01-30T10:20:37;97601.16;;;17.52
78369;BMP280;71113;43.092;-89.268;2024-01-30T10:23:03;97604.88;;;17.51
78369;BMP280;71113;43.092;-89.268;2024-01-30T10:25:33;97610.16;;;17.51
78369;BMP280;71113;43.092;-89.268;2024-01-30T10:27:59;97606.00;;;17.50
78369;BMP280;71113;43.092;-89.268;2024-01-30T10:30:25;97601.38;;;17.47
78369;BMP280;71113;43.092;-89.268;2024-01-30T10:32:51;97604.00;;;17.47
78369;BMP280;71113;43.092;-89.268;2024-01-30T10:35:17;97604.31;;;17.45
78369;BMP280;71113;43.092;-89.268;2024-01-30T10:37:49;97597.84;;;17.43
78369;BMP280;71113;43.092;-89.268;2024-01-30T10:40:15;97606.97;;;17.45
78369;BMP280;71113;43.092;-89.268;2024-01-30T10:42:43;97606.19;;;17.45
78369;BMP280;71113;43.092;-89.268;2024-01-30T10:45:11;97600.91;;;17.45
78369;BMP280;71113;43.092;-89.268;2024-01-30T10:47:40;97598.91;;;17.42
78369;BMP280;71113;43.092;-89.268;2024-01-30T10:50:08;97600.03;;;17.41
78369;BMP280;71113;43.092;-89.268;2024-01-30T10:52:34;97611.31;;;17.41
78369;BMP280;71113;43.092;-89.268;2024-01-30T10:55:01;97611.66;;;17.40
78369;BMP280;71113;43.092;-89.268;2024-01-30T10:57:29;97607.47;;;17.39
78369;BMP280;71113;43.092;-89.268;2024-01-30T10:59:57;97604.06;;;17.38
78369;BMP280;71113;43.092;-89.268;2024-01-30T11:02:25;97613.06;;;17.37
78369;BMP280;71113;43.092;-89.268;2024-01-30T11:04:58;97611.19;;;17.38
78369;BMP280;71113;43.092;-89.268;2024-01-30T11:07:29;97609.19;;;17.34
78369;BMP280;71113;43.092;-89.268;2024-01-30T11:12:25;97611.72;;;17.31
78369;BMP280;71113;43.092;-89.268;2024-01-30T11:22:50;97612.81;;;17.30
78369;BMP280;71113;43.092;-89.268;2024-01-30T11:25:19;97618.09;;;17.30
78369;BMP280;71113;43.092;-89.268;2024-01-30T11:27:46;97613.13;;;17.28
78369;BMP280;71113;43.092;-89.268;2024-01-30T11:30:25;97621.03;;;17.28
78369;BMP280;71113;43.092;-89.268;2024-01-30T11:33:02;97618.41;;;17.28
78369;BMP280;71113;43.092;-89.268;2024-01-30T11:35:35;97619.78;;;17.26
78369;BMP280;71113;43.092;-89.268;2024-01-30T11:38:03;97624.31;;;17.25
78369;BMP280;71113;43.092;-89.268;2024-01-30T11:40:29;97625.06;;;17.26
78369;BMP280;71113;43.092;-89.268;2024-01-30T11:42:56;97626.44;;;17.32
78369;BMP280;71113;43.092;-89.268;2024-01-30T11:45:23;97629.34;;;17.39
78369;BMP280;71113;43.092;-89.268;2024-01-30T11:47:49;97633.31;;;17.45
78369;BMP280;71113;43.092;-89.268;2024-01-30T11:50:15;97632.19;;;17.55
78369;BMP280;71113;43.092;-89.268;2024-01-30T11:52:42;97638.47;;;17.62
78369;BMP280;71113;43.092;-89.268;2024-01-30T11:55:09;97637.16;;;17.69
78369;BMP280;71113;43.092;-89.268;2024-01-30T11:57:36;97641.66;;;17.68
78369;BMP280;71113;43.092;-89.268;2024-01-30T12:00:06;97648.25;;;17.62
78369;BMP280;71113;43.092;-89.268;2024-01-30T12:02:39;97646.53;;;17.57
78369;BMP280;71113;43.092;-89.268;2024-01-30T12:05:06;97650.94;;;17.53
78369;BMP280;71113;43.092;-89.268;2024-01-30T12:07:33;97660.22;;;17.59
78369;BMP280;71113;43.092;-89.268;2024-01-30T12:09:59;97659.03;;;17.69
78369;BMP280;71113;43.092;-89.268;2024-01-30T12:12:26;97661.63;;;17.78
78369;BMP280;71113;43.092;-89.268;2024-01-30T12:14:53;97664.16;;;17.86
78369;BMP280;71113;43.092;-89.268;2024-01-30T12:17:30;97668.84;;;17.81
78369;BMP280;71113;43.092;-89.268;2024-01-30T12:20:22;97672.16;;;17.78
78369;BMP280;71113;43.092;-89.268;2024-01-30T12:22:49;97668.72;;;17.77
78369;BMP280;71113;43.092;-89.268;2024-01-30T12:25:17;97675.09;;;17.76
78369;BMP280;71113;43.092;-89.268;2024-01-30T12:27:45;97677.31;;;17.74
78369;BMP280;71113;43.092;-89.268;2024-01-30T12:30:13;97684.47;;;17.74
78369;BMP280;71113;43.092;-89.268;2024-01-30T12:32:44;97694.69;;;17.75
78369;BMP280;71113;43.092;-89.268;2024-01-30T12:35:15;97690.16;;;17.76
78369;BMP280;71113;43.092;-89.268;2024-01-30T12:37:42;97690.88;;;17.85
78369;BMP280;71113;43.092;-89.268;2024-01-30T12:40:09;97700.78;;;17.88
78369;BMP280;71113;43.092;-89.268;2024-01-30T12:42:36;97698.78;;;17.85
78369;BMP280;71113;43.092;-89.268;2024-01-30T12:45:03;97699.88;;;17.84
78369;BMP280;71113;43.092;-89.268;2024-01-30T12:47:32;97702.84;;;17.82
78369;BMP280;71113;43.092;-89.268;2024-01-30T12:49:58;97709.22;;;17.81
78369;BMP280;71113;43.092;-89.268;2024-01-30T12:52:24;97709.22;;;17.81
78369;BMP280;71113;43.092;-89.268;2024-01-30T12:54:50;97710.28;;;17.80
78369;BMP280;71113;43.092;-89.268;2024-01-30T12:57:17;97712.91;;;17.80
78369;BMP280;71113;43.092;-89.268;2024-01-30T12:59:46;97707.66;;;17.80
78369;BMP280;71113;43.092;-89.268;2024-01-30T13:02:13;97720.09;;;17.80
78369;BMP280;71113;43.092;-89.268;2024-01-30T13:04:39;97720.84;;;17.80
78369;BMP280;71113;43.092;-89.268;2024-01-30T13:07:05;97715.16;;;17.78
78369;BMP280;71113;43.092;-89.268;2024-01-30T13:09:32;97723.47;;;17.80
78369;BMP280;71113;43.092;-89.268;2024-01-30T13:11:58;97725.50;;;17.83
78369;BMP280;71113;43.092;-89.268;2024-01-30T13:14:25;97725.72;;;17.90
78369;BMP280;71113;43.092;-89.268;2024-01-30T13:16:52;97729.53;;;18.02
78369;BMP280;71113;43.092;-89.268;2024-01-30T13:19:18;97727.00;;;18.05
78369;BMP280;71113;43.092;-89.268;2024-01-30T13:21:44;97732.63;;;18.04
78369;BMP280;71113;43.092;-89.268;2024-01-30T13:24:10;97732.19;;;18.02
78369;BMP280;71113;43.092;-89.268;2024-01-30T13:26:36;97737.13;;;18.03
78369;BMP280;71113;43.092;-89.268;2024-01-30T13:29:02;97738.66;;;18.04
78369;BMP280;71113;43.092;-89.268;2024-01-30T13:31:29;97742.53;;;18.07
78369;BMP280;71113;43.092;-89.268;2024-01-30T13:33:56;97752.78;;;18.08
78369;BMP280;71113;43.092;-89.268;2024-01-30T13:36:23;97747.16;;;18.10
78369;BMP280;71113;43.092;-89.268;2024-01-30T13:38:49;97761.28;;;18.14
78369;BMP280;71113;43.092;-89.268;2024-01-30T13:41:15;97749.94;;;18.13
78369;BMP280;71113;43.092;-89.268;2024-01-30T13:43:43;97759.53;;;18.18
78369;BMP280;71113;43.092;-89.268;2024-01-30T13:46:10;97763.66;;;18.19
78369;BMP280;71113;43.092;-89.268;2024-01-30T13:48:36;97764.16;;;18.21
78369;BMP280;71113;43.092;-89.268;2024-01-30T13:51:01;97775.16;;;18.23
78369;BMP280;71113;43.092;-89.268;2024-01-30T13:53:27;97768.44;;;18.25